Time;durP1;ratioP1;P1;durP2;ratioP2;P2;SDS_P1;SDS_P2;PMS_P1;PMS_P2;Temp;Humidity;BMP_temperature;BMP_pressure;BME280_temperature;BME280_humidity;BME280_pressure;Samples;Min_cycle;Max_cycle;Signal;HPM_P1;HPM_P2
2024/04/08 00:05:43;;;;;;;4.18;1.23;;;;;;;;;;21963085;26;20006;-46
2024/04/08 00:15:44;;;;;;;3.50;1.05;;;;;;;;;;21970576;26;20005;-45
2024/04/08 00:25:46;;;;;;;2.80;1.38;;;;;;;;;;22011855;26;20020;-44
2024/04/08 00:35:48;;;;;;;3.60;1.50;;;;;;;;;;21971481;26;20051;-44
2024/04/08 00:45:49;;;;;;;4.68;1.50;;;;;;;;;;21991772;26;20395;-46
2024/04/08 00:55:52;;;;;;;4.60;1.35;;;;;;;;;;21965453;26;20024;-46
2024/04/08 01:05:54;;;;;;;2.67;1.20;;;;;;;;;;21951511;26;19998;-47
2024/04/08 01:15:59;;;;;;;3.17;1.58;;;;;;;;;;21944158;26;20090;-46
2024/04/08 01:26:01;;;;;;;3.38;1.30;;;;;;;;;;22012493;26;20016;-48
2024/04/08 01:36:04;;;;;;;3.75;1.17;;;;;;;;;;21944278;26;20408;-44
2024/04/08 01:46:06;;;;;;;3.47;0.98;;;;;;;;;;21971622;26;20024;-44
2024/04/08 01:56:07;;;;;;;3.20;0.98;;;;;;;;;;21957537;26;20935;-44
2024/04/08 02:06:09;;;;;;;3.75;1.10;;;;;;;;;;21999448;26;20020;-45
2024/04/08 02:16:11;;;;;;;2.85;0.80;;;;;;;;;;21958215;26;20045;-46
2024/04/08 02:26:13;;;;;;;3.25;0.82;;;;;;;;;;21969733;26;20020;-44
2024/04/08 02:36:16;;;;;;;1.67;0.70;;;;;;;;;;21974665;26;20005;-45
2024/04/08 02:46:54;;;;;;;2.58;0.73;;;;;;;;;;21970098;26;20006;-44
2024/04/08 02:56:56;;;;;;;2.88;0.50;;;;;;;;;;21969894;26;20013;-46
2024/04/08 03:06:57;;;;;;;3.97;0.90;;;;;;;;;;21948114;26;20005;-46
2024/04/08 03:16:59;;;;;;;2.63;0.95;;;;;;;;;;21942594;26;20002;-45
2024/04/08 03:27:00;;;;;;;4.00;1.20;;;;;;;;;;21951793;26;20341;-45
2024/04/08 03:37:03;;;;;;;3.40;0.60;;;;;;;;;;21968045;26;20016;-45
2024/04/08 03:47:05;;;;;;;4.70;1.25;;;;;;;;;;21978149;26;20006;-45
2024/04/08 03:57:06;;;;;;;2.92;0.80;;;;;;;;;;21934398;26;20005;-44
2024/04/08 04:07:08;;;;;;;4.50;1.13;;;;;;;;;;21941838;27;20113;-45
2024/04/08 04:17:09;;;;;;;5.28;1.33;;;;;;;;;;21953128;26;20002;-44
2024/04/08 04:27:11;;;;;;;4.07;1.58;;;;;;;;;;21932198;26;20120;-46
2024/04/08 04:37:12;;;;;;;5.63;1.50;;;;;;;;;;21946603;26;20013;-48
2024/04/08 04:47:14;;;;;;;4.85;1.42;;;;;;;;;;21976982;26;20371;-48
2024/04/08 04:57:16;;;;;;;4.47;0.75;;;;;;;;;;21989244;26;20032;-45
2024/04/08 05:07:18;;;;;;;5.82;0.90;;;;;;;;;;21971024;26;20017;-47
2024/04/08 05:17:20;;;;;;;4.95;1.55;;;;;;;;;;21978921;26;20026;-45
2024/04/08 05:27:21;;;;;;;5.50;1.50;;;;;;;;;;21959936;26;20003;-44
2024/04/08 05:37:23;;;;;;;6.82;1.55;;;;;;;;;;21986262;26;20084;-46
2024/04/08 05:47:24;;;;;;;4.53;2.13;;;;;;;;;;21970024;26;20479;-45
2024/04/08 05:57:26;;;;;;;8.80;2.03;;;;;;;;;;21991318;26;20001;-44
2024/04/08 06:07:28;;;;;;;9.38;2.35;;;;;;;;;;21969803;26;20005;-45
2024/04/08 06:17:30;;;;;;;10.10;2.20;;;;;;;;;;22040416;26;20540;-45
2024/04/08 06:27:31;;;;;;;13.60;2.47;;;;;;;;;;21973887;26;20529;-45
2024/04/08 06:37:33;;;;;;;8.45;1.88;;;;;;;;;;21973497;26;20005;-47
2024/04/08 06:47:53;;;;;;;6.97;1.92;;;;;;;;;;21966152;26;20453;-46
2024/04/08 06:57:55;;;;;;;13.63;3.15;;;;;;;;;;22001064;26;20031;-48
2024/04/08 07:07:56;;;;;;;15.85;3.03;;;;;;;;;;21991787;26;20012;-47
2024/04/08 07:17:58;;;;;;;11.70;2.60;;;;;;;;;;21978223;26;20061;-51
2024/04/08 07:28:00;;;;;;;12.98;2.92;;;;;;;;;;21967118;26;20002;-46
2024/04/08 07:38:02;;;;;;;7.32;1.90;;;;;;;;;;21958040;26;20021;-46
2024/04/08 07:48:05;;;;;;;8.15;1.80;;;;;;;;;;21958261;26;20141;-46
2024/04/08 07:58:07;;;;;;;9.25;1.58;;;;;;;;;;21962502;26;20010;-45
2024/04/08 08:08:11;;;;;;;11.27;2.60;;;;;;;;;;21962942;26;20001;-46
2024/04/08 08:18:12;;;;;;;7.25;1.63;;;;;;;;;;21971587;26;20016;-45
2024/04/08 08:28:14;;;;;;;5.07;1.08;;;;;;;;;;21968830;26;20005;-52
2024/04/08 08:38:17;;;;;;;2.40;0.38;;;;;;;;;;21990193;26;20503;-51
2024/04/08 08:48:18;;;;;;;4.63;0.55;;;;;;;;;;21970401;26;20539;-51
2024/04/08 08:58:22;;;;;;;1.50;0.30;;;;;;;;;;21972867;26;20064;-53
2024/04/08 09:08:24;;;;;;;1.30;0.30;;;;;;;;;;21988423;26;20005;-51
2024/04/08 09:18:26;;;;;;;2.05;0.40;;;;;;;;;;21980637;26;20294;-52
2024/04/08 09:28:28;;;;;;;3.95;0.70;;;;;;;;;;21964953;26;20017;-52
2024/04/08 09:38:31;;;;;;;3.45;0.70;;;;;;;;;;22025006;26;20001;-52
2024/04/08 09:48:33;;;;;;;2.40;0.45;;;;;;;;;;21958948;26;20013;-52
2024/04/08 09:58:40;;;;;;;3.35;0.70;;;;;;;;;;21970076;26;20009;-53
2024/04/08 10:08:41;;;;;;;7.38;0.60;;;;;;;;;;21973837;26;20010;-51
2024/04/08 10:18:47;;;;;;;1.90;0.50;;;;;;;;;;21982255;26;20040;-52
2024/04/08 10:28:48;;;;;;;3.30;0.70;;;;;;;;;;21969517;26;20020;-54
2024/04/08 10:38:51;;;;;;;3.65;0.60;;;;;;;;;;21970416;26;20013;-53
2024/04/08 10:48:53;;;;;;;4.47;0.70;;;;;;;;;;21976518;26;20040;-53
2024/04/08 10:58:54;;;;;;;5.85;1.17;;;;;;;;;;21961240;26;20009;-54
2024/04/08 11:19:55;;;;;;;4.07;0.88;;;;;;;;;;21960877;26;20037;-52
2024/04/08 11:29:57;;;;;;;4.30;0.60;;;;;;;;;;21986427;26;20045;-54
2024/04/08 11:39:58;;;;;;;2.72;0.70;;;;;;;;;;21975855;26;20337;-51
2024/04/08 11:50:00;;;;;;;5.00;0.93;;;;;;;;;;21954144;26;20029;-53
2024/04/08 12:00:04;;;;;;;2.53;0.65;;;;;;;;;;21966015;26;20020;-52
2024/04/08 12:10:09;;;;;;;3.42;1.08;;;;;;;;;;21973951;26;20149;-52
2024/04/08 12:20:12;;;;;;;4.30;0.73;;;;;;;;;;21972532;26;20025;-52
2024/04/08 12:30:14;;;;;;;2.13;0.60;;;;;;;;;;21978103;26;20017;-52
2024/04/08 12:40:16;;;;;;;3.47;0.70;;;;;;;;;;22017286;26;20001;-52
2024/04/08 12:50:18;;;;;;;2.67;0.63;;;;;;;;;;21975776;26;20853;-51
2024/04/08 13:00:20;;;;;;;4.95;1.15;;;;;;;;;;22002962;26;20017;-53
2024/04/08 13:10:23;;;;;;;3.58;0.50;;;;;;;;;;21988248;26;20445;-50
2024/04/08 13:20:25;;;;;;;4.45;1.02;;;;;;;;;;21988008;26;20001;-52
2024/04/08 13:30:28;;;;;;;4.78;0.90;;;;;;;;;;22020936;26;20010;-53
2024/04/08 13:40:49;;;;;;;2.30;0.70;;;;;;;;;;21938160;26;20001;-52
2024/04/08 13:50:52;;;;;;;1.45;0.40;;;;;;;;;;21954926;26;20009;-51
2024/04/08 14:00:54;;;;;;;2.35;0.30;;;;;;;;;;21988170;26;20026;-52
2024/04/08 14:10:55;;;;;;;3.28;0.30;;;;;;;;;;21971592;26;20121;-51
2024/04/08 14:20:57;;;;;;;1.92;0.30;;;;;;;;;;21974166;26;20030;-50
2024/04/08 14:30:59;;;;;;;4.28;0.30;;;;;;;;;;21978604;26;20005;-51
2024/04/08 14:41:03;;;;;;;1.85;0.30;;;;;;;;;;21994433;26;20006;-50
2024/04/08 14:51:04;;;;;;;2.83;0.40;;;;;;;;;;21939170;26;20417;-52
2024/04/08 15:01:11;;;;;;;4.47;0.73;;;;;;;;;;21958134;26;20012;-50
2024/04/08 15:11:12;;;;;;;1.10;0.30;;;;;;;;;;21933523;26;20013;-52
2024/04/08 15:21:14;;;;;;;2.75;0.22;;;;;;;;;;21981475;26;20092;-52
2024/04/08 15:31:49;;;;;;;1.30;0.20;;;;;;;;;;21972989;26;20015;-52
2024/04/08 15:41:51;;;;;;;3.30;0.40;;;;;;;;;;21983317;26;20322;-53
2024/04/08 15:51:55;;;;;;;1.73;0.10;;;;;;;;;;21973226;26;20012;-52
2024/04/08 16:01:57;;;;;;;2.08;0.35;;;;;;;;;;21999258;26;20023;-52
2024/04/08 16:11:58;;;;;;;0.93;0.28;;;;;;;;;;21963980;26;20016;-50
2024/04/08 16:22:00;;;;;;;0.93;0.17;;;;;;;;;;21977034;26;20009;-53
2024/04/08 16:32:03;;;;;;;1.70;0.30;;;;;;;;;;21992549;26;20341;-50
2024/04/08 16:42:05;;;;;;;11.73;6.88;;;;;;;;;;21975354;26;20487;-51
2024/04/08 16:52:07;;;;;;;3.80;0.45;;;;;;;;;;21975403;27;20441;-51
2024/04/08 17:02:08;;;;;;;0.98;0.13;;;;;;;;;;21975598;26;20415;-50
2024/04/08 17:12:11;;;;;;;1.33;0.40;;;;;;;;;;21971496;26;20021;-50
2024/04/08 17:22:13;;;;;;;0.88;0.30;;;;;;;;;;21969271;26;20001;-50
2024/04/08 17:32:14;;;;;;;0.73;0.13;;;;;;;;;;21966904;26;20016;-50
2024/04/08 17:42:16;;;;;;;2.90;0.28;;;;;;;;;;21966460;26;20006;-50
2024/04/08 17:52:18;;;;;;;1.80;0.30;;;;;;;;;;21978983;26;20376;-51
2024/04/08 18:02:19;;;;;;;1.58;0.30;;;;;;;;;;21965512;26;20010;-49
2024/04/08 18:12:22;;;;;;;2.20;0.40;;;;;;;;;;21947657;26;20421;-51
2024/04/08 18:22:24;;;;;;;2.42;0.30;;;;;;;;;;21966732;26;20042;-51
2024/04/08 18:32:25;;;;;;;2.33;0.85;;;;;;;;;;21995973;26;20029;-52
2024/04/08 18:42:27;;;;;;;1.83;0.75;;;;;;;;;;21987565;26;20012;-50
2024/04/08 18:52:47;;;;;;;1.70;0.43;;;;;;;;;;21954458;26;20418;-52
2024/04/08 19:02:48;;;;;;;3.08;1.00;;;;;;;;;;21939344;26;20079;-47
2024/04/08 19:12:51;;;;;;;0.68;0.20;;;;;;;;;;21942637;26;20002;-44
2024/04/08 19:22:53;;;;;;;1.17;0.30;;;;;;;;;;21968111;26;20664;-45
2024/04/08 19:32:58;;;;;;;0.68;0.25;;;;;;;;;;21929419;26;20020;-46
2024/04/08 19:43:01;;;;;;;2.60;0.43;;;;;;;;;;21986216;26;20420;-44
2024/04/08 19:53:02;;;;;;;0.73;0.30;;;;;;;;;;21939204;26;20024;-45
2024/04/08 20:03:04;;;;;;;0.43;0.10;;;;;;;;;;21954214;26;20724;-44
2024/04/08 20:13:06;;;;;;;1.77;0.20;;;;;;;;;;21927172;26;20002;-43
2024/04/08 20:23:07;;;;;;;0.40;0.10;;;;;;;;;;21991364;26;20001;-45
2024/04/08 20:33:09;;;;;;;1.70;0.20;;;;;;;;;;21971043;26;20009;-44
2024/04/08 20:43:46;;;;;;;0.45;0.13;;;;;;;;;;21943846;26;20002;-45
2024/04/08 20:53:48;;;;;;;0.85;0.10;;;;;;;;;;21994557;26;20340;-46
2024/04/08 21:03:50;;;;;;;1.27;0.20;;;;;;;;;;21961763;26;20046;-43
2024/04/08 21:13:51;;;;;;;1.38;0.20;;;;;;;;;;21963453;26;20028;-43
2024/04/08 21:23:53;;;;;;;2.22;0.30;;;;;;;;;;21966314;26;20076;-45
2024/04/08 21:33:54;;;;;;;1.23;0.25;;;;;;;;;;21966569;26;20335;-44
2024/04/08 21:43:56;;;;;;;2.08;0.22;;;;;;;;;;21947164;26;20013;-45
2024/04/08 21:53:57;;;;;;;1.92;0.40;;;;;;;;;;21962548;26;20012;-44
2024/04/08 22:04:00;;;;;;;1.40;0.20;;;;;;;;;;21973809;26;20396;-45
2024/04/08 22:14:03;;;;;;;;;;;;;;;;;;21949397;26;20085;-46
2024/04/08 22:24:05;;;;;;;3.42;0.50;;;;;;;;;;21955159;26;19933;-43
2024/04/08 22:34:06;;;;;;;4.13;0.82;;;;;;;;;;21989690;26;20082;-45
2024/04/08 22:44:08;;;;;;;3.25;0.40;;;;;;;;;;21986722;26;20001;-44
2024/04/08 22:54:46;;;;;;;0.93;0.20;;;;;;;;;;21974907;26;20006;-45
2024/04/08 23:04:48;;;;;;;2.80;0.50;;;;;;;;;;21951496;26;20018;-44
2024/04/08 23:14:49;;;;;;;1.00;0.30;;;;;;;;;;21959301;26;20087;-45
2024/04/08 23:24:51;;;;;;;3.30;0.55;;;;;;;;;;21990888;26;20006;-44
2024/04/08 23:34:54;;;;;;;3.47;0.40;;;;;;;;;;22000292;26;20005;-44
2024/04/08 23:44:56;;;;;;;4.23;0.70;;;;;;;;;;21965328;26;20018;-45
2024/04/08 23:54:58;;;;;;;2.70;0.85;;;;;;;;;;21931985;27;19998;-44
